< < Back
Terminal Aerodrome Forecast


Current Version              Previous Versions:   1  2  3  4  5  6  7  8  9  

Terminal Aerodrome Forecast

853
FTUS42 KTAE 262300
TAFVLD
TAF
KVLD 262320Z 2700/2724 04005KT P6SM SCT035=

Latest METAR

911
SAUS70 KWBC 272300 RRM
MTRVLD
METAR KVLD 272253Z 01006KT 10SM CLR 31/15 A2997 RMK AO2 SLP155
T03110150


USA.gov is the U.S. government's official web portal to all federal, state and local government web resources and services.